Knight Air

Knight Air knights of the virtual airways



 METAR AND TAF INFORMATION
METAR FOR LTBS
ADDS - METARS form results

(2305 UTC 22 August 2019)
Data provider http://aviationweather.gov/metar/data/
 
METAR text: LTBS 222250Z 06003KT 020V100 CAVOK 23/18 Q1009 NOSIG
Conditions at: LTBS (DALAMAN (COMMUNE, TR) observed 2250 UTC 22 August 2019
Temperature: 23.0°C (73°F)
Dewpoint: 18.0°C (64°F) [RH = 73%]
Pressure (altimeter): 29.79 inches Hg (1009.0 mb)
Winds: from the ENE (60 degrees) at 3 MPH (3 knots; 1.5 m/s)
Visibility: 6 or more miles (10+ km)
Ceiling: ceiling and visibility are OK
Clouds: unknown
Weather: no significant weather observed at this time

METAR text: LTBS 222220Z 07004KT 040V100 CAVOK 23/18 Q1009 NOSIG RMK RWY19 34004KT
Conditions at: LTBS (DALAMAN (COMMUNE, TR) observed 2220 UTC 22 August 2019
Temperature: 23.0°C (73°F)
Dewpoint: 18.0°C (64°F) [RH = 73%]
Pressure (altimeter): 29.79 inches Hg (1009.0 mb)
Winds: from the ENE (70 degrees) at 5 MPH (4 knots; 2.1 m/s)
Visibility: 6 or more miles (10+ km)
Ceiling: ceiling and visibility are OK
Clouds: unknown
Weather: no significant weather observed at this time

Forecast for: LTBS (DALAMAN (COMMUNE, TR)
Text: TAF LTBS 222240Z 2300/2324 VRB02KT CAVOK
Forecast period: 0000 to 0600 UTC 23 August 2019
Forecast type: FROM: standard forecast or significant change
Winds: variable direction winds at 2 MPH (2 knots; 1.0 m/s)
Visibility: 6 or more miles 10+ km)
Ceiling: unknown
Clouds: missing
Weather: NSW  (no significant weather)
Text: BECMG 2306/2308 22012KT FEW030
Forecast period: 0600 to 1600 UTC 23 August 2019
Forecast type: BECOMING: Conditions expected to become as follows by 0800 UTC 23 August 2019
Winds: from the SW (220 degrees) at 14 MPH (12 knots; 6.2 m/s)
Visibility: 6 or more miles 10+ km)
Ceiling: at least 12,000 feet AGL
Clouds: few clouds at 3000 feet AGL
Weather: NSW  (no significant weather)
Text: BECMG 2316/2318 VRB02KT CAVOK
Forecast period: 1600 UTC 23 August 2019 to 0000 UTC 24 August 2019
Forecast type: BECOMING: Conditions expected to become as follows by 1800 UTC 23 August 2019
Winds: variable direction winds at 2 MPH (2 knots; 1.0 m/s)
Visibility: 6 or more miles 10+ km)
Ceiling: unknown
Clouds: missing
Weather: NSW  (no significant weather)

 AIRPORT MAP

 RUNWAY INFORMATION
Runway 01 Runway length 9842 ft Runway width 148 ft
Runway elevation 10 ft Runway displaced threshold 0 ft Runway heading 15
Runway 19 Runway length 9842 ft Runway width 148 ft
Runway elevation 20 ft Runway displaced threshold 0 ft Runway heading 195

 AIRPORT FREQUENCIES
Type APP Name APP Frequency 119.225 MHZ
Type ATIS Name ATIS Frequency 127.35 MHZ
Type GND Name GND Frequency 121.9 MHZ
Type TWR Name TWR Frequency 118.5 MHZ

 AIRPORT NEAR NAVIGATION AIDS
Type TACAN Name Dalaman Frequency 115300 KHZ
Type VOR-DME Name Dalaman Frequency 114700 KHZ
Type NDB Name Dalaman Frequency 346 KHZ